Time;durP1;ratioP1;P1;durP2;ratioP2;P2;SDS_P1;SDS_P2;PMS_P1;PMS_P2;Temp;Humidity;BMP_temperature;BMP_pressure;BME280_temperature;BME280_humidity;BME280_pressure;Samples;Min_cycle;Max_cycle;Signal;HPM_P1;HPM_P2
2022/02/02 00:01:02;;;;;;;1.40;1.27;;;3.30;99.90;;;;;;4941447;28;20158;-49
2022/02/02 00:03:28;;;;;;;1.10;1.10;;;3.30;99.90;;;;;;4945807;28;20035;-49
2022/02/02 00:06:11;;;;;;;2.25;1.52;;;3.40;99.90;;;;;;4945626;28;20082;-48
2022/02/02 00:08:53;;;;;;;1.67;1.48;;;3.40;99.90;;;;;;4941347;28;20070;-49
2022/02/02 00:19:13;;;;;;;1.52;1.23;;;3.40;99.90;;;;;;4942461;28;20275;-49
2022/02/02 00:21:44;;;;;;;1.50;1.40;;;3.40;99.90;;;;;;4942025;28;20400;-49
2022/02/02 00:26:58;;;;;;;2.65;1.42;;;3.40;99.90;;;;;;4945218;28;22069;-51
2022/02/02 00:29:31;;;;;;;1.55;1.45;;;3.40;99.90;;;;;;4941958;28;20039;-50
2022/02/02 00:32:05;;;;;;;1.30;1.20;;;3.40;99.90;;;;;;4940206;28;20047;-49
2022/02/02 00:34:32;;;;;;;1.98;1.60;;;3.50;99.90;;;;;;4941658;28;20113;-50
2022/02/02 00:36:58;;;;;;;1.50;1.40;;;3.50;99.90;;;;;;4938858;28;20039;-50
2022/02/02 00:39:26;;;;;;;1.65;1.55;;;3.50;99.90;;;;;;4938479;28;20023;-50
2022/02/02 00:41:56;;;;;;;1.55;1.45;;;3.50;99.90;;;;;;4939433;28;20027;-49
2022/02/02 00:44:23;;;;;;;2.03;1.52;;;3.50;99.90;;;;;;4937473;28;20030;-50
2022/02/02 00:46:49;;;;;;;1.80;1.70;;;3.60;99.90;;;;;;4943611;28;20031;-49
2022/02/02 00:49:15;;;;;;;1.67;1.58;;;3.50;99.90;;;;;;4939084;28;20114;-49
2022/02/02 00:54:10;;;;;;;1.30;1.20;;;3.50;99.90;;;;;;4942545;28;20047;-49
2022/02/02 00:56:35;;;;;;;1.17;1.13;;;3.50;99.90;;;;;;4938789;28;20057;-49
2022/02/02 00:59:01;;;;;;;1.10;1.10;;;3.50;99.90;;;;;;4940216;28;20031;-50
2022/02/02 01:01:27;;;;;;;1.40;1.38;;;3.50;99.90;;;;;;4940089;28;20031;-50
2022/02/02 01:03:53;;;;;;;1.52;1.40;;;3.50;99.90;;;;;;4946125;28;20038;-50
2022/02/02 01:06:20;;;;;;;1.33;1.27;;;3.50;99.90;;;;;;4942418;28;20082;-49
2022/02/02 01:11:48;;;;;;;1.10;1.05;;;3.40;99.90;;;;;;4941080;28;20054;-49
2022/02/02 01:27:50;;;;;;;0.98;0.98;;;3.40;99.90;;;;;;4939684;28;20046;-49
2022/02/02 01:30:09;;;;;;;1.75;1.35;;;3.40;99.90;;;;;;4939249;28;20039;-49
2022/02/02 01:32:34;;;;;;;1.48;1.38;;;3.30;99.90;;;;;;4939500;28;20043;-50
2022/02/02 01:35:00;;;;;;;1.80;1.38;;;3.40;99.90;;;;;;4941543;28;20027;-50
2022/02/02 01:37:27;;;;;;;1.30;1.20;;;3.30;99.90;;;;;;4939934;28;20062;-50
2022/02/02 01:40:01;;;;;;;1.35;1.27;;;3.30;99.90;;;;;;4940847;28;20062;-49
2022/02/02 01:42:34;;;;;;;1.40;1.30;;;3.30;99.90;;;;;;4938705;28;20028;-50
2022/02/02 01:45:11;;;;;;;1.35;1.35;;;3.30;99.90;;;;;;4938081;28;20062;-49
2022/02/02 01:47:49;;;;;;;1.60;1.50;;;3.30;99.90;;;;;;4939842;28;20488;-49
2022/02/02 01:50:20;;;;;;;1.60;1.50;;;3.30;99.90;;;;;;4939780;28;20428;-49
2022/02/02 01:55:38;;;;;;;1.63;1.52;;;3.30;99.90;;;;;;4939305;28;20034;-50
2022/02/02 01:58:19;;;;;;;1.85;1.70;;;3.30;99.90;;;;;;4945478;28;20555;-49
2022/02/02 02:00:45;;;;;;;1.80;1.70;;;3.40;99.90;;;;;;4940982;28;20038;-49
2022/02/02 02:03:11;;;;;;;1.50;1.40;;;3.40;99.90;;;;;;4940306;28;20027;-49
2022/02/02 02:05:37;;;;;;;1.35;1.35;;;3.40;99.90;;;;;;4941632;28;20105;-49
2022/02/02 02:08:02;;;;;;;1.88;1.45;;;3.40;99.90;;;;;;4944281;28;20042;-51
2022/02/02 02:10:28;;;;;;;1.75;1.30;;;3.50;99.90;;;;;;4939710;28;20035;-50
2022/02/02 02:13:09;;;;;;;1.40;1.33;;;3.50;99.90;;;;;;4940343;28;20031;-50
2022/02/02 02:15:35;;;;;;;1.60;1.50;;;3.60;99.90;;;;;;4938485;28;20186;-49
2022/02/02 02:18:02;;;;;;;1.48;1.38;;;3.50;99.90;;;;;;4939450;28;20027;-49
2022/02/02 02:20:28;;;;;;;1.60;1.48;;;3.50;99.90;;;;;;4941823;28;20063;-49
2022/02/02 02:22:53;;;;;;;1.65;1.55;;;3.50;99.90;;;;;;4940274;28;20046;-49
2022/02/02 02:25:26;;;;;;;1.70;1.60;;;3.50;99.90;;;;;;4939333;28;20443;-50
2022/02/02 02:27:52;;;;;;;2.38;1.70;;;3.50;99.90;;;;;;4938653;28;20481;-49
2022/02/02 02:30:27;;;;;;;1.48;1.38;;;3.60;99.90;;;;;;4941669;28;20101;-49
2022/02/02 02:33:13;;;;;;;5.63;2.03;;;3.60;99.90;;;;;;4940621;28;20102;-49
2022/02/02 02:57:43;;;;;;;2.33;1.75;;;3.70;99.90;;;;;;4946895;28;20372;-49
2022/02/02 03:03:24;;;;;;;2.70;2.10;;;3.60;99.90;;;;;;4942033;28;20586;-49
2022/02/02 03:30:41;;;;;;;6.93;2.15;;;3.80;99.90;;;;;;4943281;28;20117;-48
2022/02/02 03:50:12;;;;;;;6.03;1.98;;;3.90;99.90;;;;;;4941929;28;20058;-49
2022/02/02 03:59:57;;;;;;;3.28;1.55;;;3.90;99.90;;;;;;4942595;28;20035;-49
2022/02/02 04:05:42;;;;;;;2.70;1.30;;;4.00;99.90;;;;;;4944676;28;20055;-48
2022/02/02 04:08:26;;;;;;;5.97;1.70;;;4.10;99.90;;;;;;4942269;28;20058;-49
2022/02/02 04:10:28;;;;;;;2.47;1.20;;;4.10;99.90;;;;;;4940505;28;20472;-49
2022/02/02 04:13:07;;;;;;;4.43;1.30;;;4.10;99.90;;;;;;4943140;28;20432;-49
2022/02/02 04:54:18;;;;;;;2.67;1.17;;;3.90;99.90;;;;;;4944683;28;20048;-50
2022/02/02 05:08:01;;;;;;;4.07;0.82;;;4.10;99.90;;;;;;4943217;28;20035;-50
2022/02/02 05:53:12;;;;;;;6.47;2.53;;;4.20;99.90;;;;;;4941877;28;20039;-49
2022/02/02 05:55:44;;;;;;;8.23;2.47;;;4.30;99.90;;;;;;4943044;28;20568;-50
2022/02/02 05:58:10;;;;;;;7.30;2.33;;;4.30;99.90;;;;;;4944369;28;20113;-49
2022/02/02 06:00:39;;;;;;;5.68;2.50;;;4.30;99.90;;;;;;4946577;28;20043;-49
2022/02/02 06:03:14;;;;;;;4.40;2.10;;;4.30;99.90;;;;;;4945872;28;20051;-49
2022/02/02 06:05:41;;;;;;;2.60;1.60;;;4.20;99.90;;;;;;4942991;28;20441;-49
2022/02/02 06:08:12;;;;;;;4.50;1.50;;;4.00;99.90;;;;;;4938652;28;20023;-48
2022/02/02 06:10:42;;;;;;;5.65;1.38;;;4.00;99.90;;;;;;4939583;28;20046;-48
2022/02/02 06:13:08;;;;;;;9.32;2.42;;;4.00;99.90;;;;;;4941077;28;20035;-48
2022/02/02 06:15:35;;;;;;;4.40;1.48;;;3.90;99.90;;;;;;4941226;28;20432;-49
2022/02/02 06:18:03;;;;;;;5.50;1.63;;;4.00;99.90;;;;;;4942326;28;20023;-50
2022/02/02 06:20:28;;;;;;;6.60;1.97;;;3.90;99.90;;;;;;4941370;28;20035;-49
2022/02/02 06:23:03;;;;;;;6.47;1.35;;;3.90;99.90;;;;;;4945327;28;20289;-48
2022/02/02 06:25:33;;;;;;;4.38;1.58;;;3.90;99.90;;;;;;4951106;28;20122;-49
2022/02/02 06:28:02;;;;;;;4.45;1.60;;;4.00;99.90;;;;;;4950023;28;20027;-49
2022/02/02 06:30:29;;;;;;;5.95;2.03;;;3.90;99.90;;;;;;4949384;28;20030;-49
2022/02/02 06:33:06;;;;;;;3.67;1.30;;;3.90;99.90;;;;;;4951801;28;20035;-50
2022/02/02 06:35:33;;;;;;;5.30;1.60;;;3.90;99.90;;;;;;4945357;28;20042;-49
2022/02/02 06:38:00;;;;;;;8.52;2.17;;;3.90;99.90;;;;;;4939303;28;20054;-49
2022/02/02 06:40:26;;;;;;;2.50;1.30;;;3.80;99.90;;;;;;4948594;28;20027;-49
2022/02/02 06:42:52;;;;;;;4.72;1.67;;;3.80;99.90;;;;;;4948068;28;20031;-49
2022/02/02 06:45:19;;;;;;;5.97;2.03;;;3.80;99.90;;;;;;4945425;28;20029;-49
2022/02/02 06:47:45;;;;;;;4.20;1.60;;;3.80;99.90;;;;;;4944596;28;20596;-49
2022/02/02 06:53:00;;;;;;;6.45;1.48;;;3.80;99.90;;;;;;4941875;28;20031;-49
2022/02/02 06:55:38;;;;;;;5.22;2.00;;;3.90;99.90;;;;;;4943686;28;20416;-48
2022/02/02 06:58:59;;;;;;;2.95;1.70;;;3.90;99.90;;;;;;4944407;28;20523;-49
2022/02/02 07:01:58;;;;;;;4.38;1.60;;;3.90;99.90;;;;;;4940824;28;20039;-49
2022/02/02 07:04:54;;;;;;;5.00;2.28;;;3.90;99.90;;;;;;4944597;28;20034;-48
2022/02/02 07:10:29;;;;;;;8.02;2.00;;;3.90;99.90;;;;;;4943576;28;20035;-49
2022/02/02 07:26:20;;;;;;;13.43;1.95;;;4.00;99.90;;;;;;4949423;28;20045;-49
2022/02/02 07:33:58;;;;;;;4.53;1.50;;;4.00;99.90;;;;;;4949270;28;20094;-49
2022/02/02 07:36:33;;;;;;;5.13;2.08;;;3.90;99.90;;;;;;4950967;28;20122;-50
2022/02/02 07:39:03;;;;;;;8.73;1.85;;;3.80;99.90;;;;;;4948844;28;20031;-50
2022/02/02 07:41:33;;;;;;;8.95;2.10;;;3.80;99.90;;;;;;4949716;28;20055;-49
2022/02/02 07:44:08;;;;;;;4.68;1.92;;;3.80;99.90;;;;;;4946783;28;20069;-49
2022/02/02 07:46:35;;;;;;;12.07;2.65;;;3.80;99.90;;;;;;4945565;28;20488;-50
2022/02/02 07:49:01;;;;;;;9.45;2.15;;;3.80;99.90;;;;;;4949225;28;20543;-49
2022/02/02 07:51:31;;;;;;;7.80;2.58;;;3.80;99.90;;;;;;4946814;28;20114;-49
2022/02/02 07:54:01;;;;;;;7.30;2.45;;;3.80;99.90;;;;;;4951272;28;20050;-50
2022/02/02 07:56:34;;;;;;;9.68;2.20;;;3.90;99.90;;;;;;4947551;28;20043;-49
2022/02/02 08:01:54;;;;;;;8.52;1.98;;;3.90;99.90;;;;;;4946492;28;20036;-48
2022/02/02 08:04:22;;;;;;;4.97;1.65;;;3.90;99.90;;;;;;4949255;28;20041;-49
2022/02/02 08:06:52;;;;;;;5.32;1.95;;;3.90;99.90;;;;;;4946097;28;20019;-49
2022/02/02 08:09:35;;;;;;;5.40;1.92;;;3.90;99.90;;;;;;4945043;28;20035;-49
2022/02/02 08:12:02;;;;;;;5.32;1.77;;;4.00;99.90;;;;;;4946533;28;20122;-49
2022/02/02 08:14:29;;;;;;;5.43;1.83;;;4.00;99.90;;;;;;4945213;28;20456;-49
2022/02/02 08:16:55;;;;;;;8.82;2.15;;;4.00;99.90;;;;;;4945715;28;20039;-51
2022/02/02 08:19:22;;;;;;;4.20;1.23;;;4.00;99.90;;;;;;4947186;28;20019;-50
2022/02/02 08:21:47;;;;;;;4.75;1.35;;;4.00;99.90;;;;;;4948387;28;21878;-48
2022/02/02 08:24:14;;;;;;;12.57;2.03;;;4.00;99.90;;;;;;4946538;28;20101;-50
2022/02/02 08:26:40;;;;;;;5.50;1.80;;;4.00;99.90;;;;;;4948782;28;20035;-49
2022/02/02 08:29:08;;;;;;;6.40;1.48;;;4.10;99.90;;;;;;4947423;28;20024;-50
2022/02/02 08:31:36;;;;;;;5.03;1.30;;;4.10;99.90;;;;;;4952610;28;20046;-49
2022/02/02 08:34:08;;;;;;;6.17;1.63;;;4.10;99.90;;;;;;4949604;28;20027;-49
2022/02/02 08:36:34;;;;;;;4.00;1.92;;;4.10;99.90;;;;;;4946331;28;20035;-49
2022/02/02 08:39:17;;;;;;;4.72;1.75;;;4.20;99.90;;;;;;4947016;28;20089;-49
2022/02/02 08:41:48;;;;;;;5.38;1.85;;;4.20;99.90;;;;;;4948664;28;20027;-49
2022/02/02 08:45:13;;;;;;;4.72;2.38;;;4.30;99.90;;;;;;4948336;28;20038;-49
2022/02/02 08:47:07;;;;;;;4.55;1.95;;;4.30;99.90;;;;;;4941197;28;20535;-49
2022/02/02 08:49:38;;;;;;;8.30;2.20;;;4.40;99.90;;;;;;4946477;28;20624;-49
2022/02/02 08:52:04;;;;;;;5.47;2.33;;;4.40;99.90;;;;;;4947551;28;20085;-49
2022/02/02 08:54:44;;;;;;;8.25;2.47;;;4.40;99.90;;;;;;4948097;28;20070;-50
2022/02/02 09:00:04;;;;;;;6.53;2.70;;;4.50;99.90;;;;;;4943150;28;20050;-49
2022/02/02 09:02:33;;;;;;;9.45;2.08;;;4.50;99.90;;;;;;4947926;28;20042;-49
2022/02/02 09:07:43;;;;;;;6.07;2.50;;;4.60;99.90;;;;;;4943075;28;20073;-50
2022/02/02 09:10:16;;;;;;;3.15;2.25;;;4.60;99.90;;;;;;4946023;28;20039;-50
2022/02/02 09:25:59;;;;;;;7.88;2.13;;;4.70;99.90;;;;;;4946501;28;20051;-50
2022/02/02 09:36:11;;;;;;;7.05;2.75;;;4.70;99.90;;;;;;4944263;28;20314;-50
2022/02/02 09:38:37;;;;;;;6.53;2.53;;;4.80;99.90;;;;;;4944169;28;20054;-49
2022/02/02 09:41:30;;;;;;;7.07;2.33;;;4.80;99.90;;;;;;4945446;28;20396;-50
2022/02/02 09:44:00;;;;;;;7.72;2.25;;;4.80;99.90;;;;;;4942768;28;20039;-49
2022/02/02 09:46:40;;;;;;;10.43;2.83;;;4.90;99.90;;;;;;4943847;28;20054;-49
2022/02/02 09:49:11;;;;;;;11.38;2.13;;;5.00;99.90;;;;;;4946353;28;20050;-49
2022/02/02 09:51:43;;;;;;;7.63;2.60;;;5.00;99.90;;;;;;4945401;28;20032;-49
2022/02/02 09:57:26;;;;;;;;;;;5.10;99.90;;;;;;4948841;28;20044;-49
2022/02/02 10:04:57;;;;;;;5.82;1.80;;;5.20;99.90;;;;;;4947853;28;20031;-51
2022/02/02 10:15:32;;;;;;;11.88;2.47;;;5.40;99.90;;;;;;4949218;28;20063;-50
2022/02/02 10:18:12;;;;;;;9.93;2.22;;;5.40;99.90;;;;;;4947074;28;20491;-49
2022/02/02 10:20:37;;;;;;;10.27;2.85;;;5.50;99.90;;;;;;4950151;28;20124;-49
2022/02/02 10:23:05;;;;;;;8.93;2.33;;;5.50;99.90;;;;;;4949032;28;20044;-49
2022/02/02 10:25:36;;;;;;;14.57;3.40;;;5.50;99.90;;;;;;4947791;28;20061;-50
2022/02/02 10:28:19;;;;;;;10.98;2.63;;;5.60;99.90;;;;;;4948667;28;20389;-49
2022/02/02 10:30:47;;;;;;;3.72;1.70;;;5.50;99.90;;;;;;4949796;28;20031;-50
2022/02/02 10:33:14;;;;;;;11.35;2.65;;;5.60;99.90;;;;;;4949166;28;20022;-50
2022/02/02 10:35:48;;;;;;;11.05;2.45;;;5.60;99.90;;;;;;4950852;28;20043;-49
2022/02/02 10:38:19;;;;;;;8.15;2.17;;;5.70;99.90;;;;;;4946757;28;20039;-49
2022/02/02 10:43:36;;;;;;;6.85;2.30;;;5.60;99.90;;;;;;4949771;28;20027;-49
2022/02/02 10:46:15;;;;;;;7.88;2.30;;;5.70;99.90;;;;;;4946605;28;20058;-50
2022/02/02 10:48:49;;;;;;;4.97;2.60;;;5.70;99.90;;;;;;4943159;28;20551;-50
2022/02/02 10:51:24;;;;;;;9.57;2.38;;;5.80;99.90;;;;;;4945951;28;20496;-49
2022/02/02 10:56:46;;;;;;;8.68;2.75;;;5.90;99.90;;;;;;4941403;28;20091;-49
2022/02/02 11:01:49;;;;;;;7.68;1.98;;;6.00;99.90;;;;;;4944944;28;20031;-49
2022/02/02 11:07:01;;;;;;;9.70;2.60;;;6.00;99.90;;;;;;4941589;28;20082;-49
2022/02/02 11:09:28;;;;;;;9.77;2.30;;;6.00;99.90;;;;;;4946033;28;20038;-50
2022/02/02 11:11:56;;;;;;;4.00;1.98;;;6.00;99.90;;;;;;4944841;28;20031;-50
2022/02/02 11:15:17;;;;;;;13.18;3.35;;;6.10;99.90;;;;;;4949876;28;20038;-49
2022/02/02 11:17:49;;;;;;;12.77;2.50;;;6.20;99.90;;;;;;4918674;29;20032;-49
2022/02/02 11:20:17;;;;;;;9.40;2.25;;;6.10;99.90;;;;;;4949213;28;20090;-49
2022/02/02 11:22:58;;;;;;;7.10;2.13;;;6.10;99.90;;;;;;4950393;28;20023;-50
2022/02/02 11:25:24;;;;;;;5.38;1.80;;;6.10;99.90;;;;;;4949666;28;20030;-50
2022/02/02 11:27:54;;;;;;;6.65;2.08;;;6.20;99.90;;;;;;4951884;28;20399;-50
2022/02/02 11:30:23;;;;;;;10.48;2.25;;;6.30;99.90;;;;;;4941433;28;20035;-49
2022/02/02 11:32:52;;;;;;;16.17;3.25;;;6.40;99.90;;;;;;4943343;28;20078;-50
2022/02/02 11:35:28;;;;;;;6.57;2.40;;;6.50;99.90;;;;;;4942255;28;20391;-50
2022/02/02 11:37:56;;;;;;;6.95;1.70;;;6.30;99.90;;;;;;4944653;28;20111;-49
2022/02/02 11:40:22;;;;;;;5.72;2.42;;;6.20;99.90;;;;;;4945514;28;20045;-49
2022/02/02 11:45:52;;;;;;;3.40;1.83;;;5.90;99.90;;;;;;4943453;28;20170;-49
2022/02/02 11:49:00;;;;;;;9.68;2.25;;;6.00;99.90;;;;;;4943820;28;20051;-49
2022/02/02 11:51:47;;;;;;;4.63;1.73;;;6.20;99.90;;;;;;4943448;28;20031;-49
2022/02/02 11:54:18;;;;;;;7.17;2.33;;;6.10;99.90;;;;;;4944898;28;20082;-49
2022/02/02 11:57:11;;;;;;;9.13;2.40;;;6.00;99.90;;;;;;4947432;28;20511;-49
2022/02/02 12:49:47;;;;;;;13.15;2.70;;;6.10;99.90;;;;;;4946187;28;20035;-49
2022/02/02 12:57:41;;;;;;;8.88;2.67;;;6.20;99.90;;;;;;4941446;28;20035;-49
2022/02/02 13:00:14;;;;;;;7.78;2.75;;;6.20;99.90;;;;;;4945257;28;20035;-49
2022/02/02 13:02:45;;;;;;;5.07;2.20;;;6.30;99.90;;;;;;4943320;28;20137;-49
2022/02/02 13:05:11;;;;;;;11.32;2.70;;;6.30;99.90;;;;;;4943821;28;20023;-49
2022/02/02 13:07:38;;;;;;;9.90;2.10;;;6.40;99.90;;;;;;4942377;28;20050;-48
2022/02/02 13:10:06;;;;;;;8.55;2.38;;;6.40;99.90;;;;;;4944702;28;20035;-49
2022/02/02 13:18:36;;;;;;;7.07;1.77;;;6.50;99.90;;;;;;4944617;28;20099;-49
2022/02/02 13:23:58;;;;;;;8.55;1.85;;;6.50;99.90;;;;;;4953470;28;20095;-49
2022/02/02 13:26:37;;;;;;;10.98;2.78;;;6.60;99.90;;;;;;4943417;28;20063;-49
2022/02/02 13:34:21;;;;;;;5.93;2.08;;;6.40;99.90;;;;;;4945862;28;20027;-49
2022/02/02 14:01:06;;;;;;;6.32;1.88;;;6.30;99.90;;;;;;4943766;28;20031;-49
2022/02/02 14:09:06;;;;;;;5.18;1.95;;;6.80;99.90;;;;;;4937720;28;20054;-49
2022/02/02 14:33:26;;;;;;;8.15;1.92;;;7.10;99.90;;;;;;4944448;28;20495;-49
2022/02/02 14:35:59;;;;;;;5.30;1.48;;;7.10;99.90;;;;;;4941680;28;20036;-49
2022/02/02 14:38:26;;;;;;;3.72;1.60;;;7.20;99.90;;;;;;4942318;28;20077;-49
2022/02/02 14:43:25;;;;;;;7.15;1.88;;;7.10;99.90;;;;;;4944656;28;20110;-50
2022/02/02 14:45:55;;;;;;;5.25;1.40;;;7.00;99.90;;;;;;4945808;28;20031;-49
2022/02/02 14:48:29;;;;;;;4.60;1.70;;;6.90;99.90;;;;;;4947473;28;20051;-50
2022/02/02 14:53:33;;;;;;;6.20;2.13;;;6.90;99.90;;;;;;4946541;28;20143;-48
2022/02/02 15:29:03;;;;;;;5.13;2.30;;;6.50;99.90;;;;;;4955125;28;20039;-49
2022/02/02 15:31:28;;;;;;;6.07;1.85;;;6.50;99.90;;;;;;4943751;28;20154;-49
2022/02/02 15:33:56;;;;;;;7.13;2.20;;;6.50;99.90;;;;;;4947647;28;20091;-49
2022/02/02 15:39:11;;;;;;;6.25;1.63;;;6.30;99.90;;;;;;4945437;28;20571;-49
2022/02/02 15:55:31;;;;;;;3.10;1.52;;;6.10;99.90;;;;;;4945510;28;20550;-48
2022/02/02 16:01:12;;;;;;;6.88;2.35;;;5.90;99.90;;;;;;4937981;28;20579;-48
2022/02/02 16:03:15;;;;;;;6.53;2.20;;;5.90;99.90;;;;;;4941198;28;20035;-48
2022/02/02 16:05:48;;;;;;;8.13;2.33;;;5.90;99.90;;;;;;4944803;28;20027;-48
2022/02/02 16:08:19;;;;;;;5.13;1.80;;;5.90;99.90;;;;;;4944346;28;20404;-49
2022/02/02 16:11:00;;;;;;;3.92;2.20;;;5.90;99.90;;;;;;4961028;28;20039;-49
2022/02/02 16:13:30;;;;;;;2.45;1.92;;;5.90;99.90;;;;;;4943963;28;20121;-49
2022/02/02 16:16:03;;;;;;;5.85;1.67;;;5.80;99.90;;;;;;4943948;28;20544;-49
2022/02/02 16:18:37;;;;;;;8.93;2.15;;;5.80;99.90;;;;;;4942746;28;20039;-49
2022/02/02 16:35:27;;;;;;;6.00;2.97;;;5.60;99.90;;;;;;4941970;28;20051;-49
2022/02/02 16:37:55;;;;;;;5.45;1.77;;;5.60;99.90;;;;;;4940258;28;20035;-49
2022/02/02 16:40:22;;;;;;;7.53;2.25;;;5.60;99.90;;;;;;4960180;28;20511;-49
2022/02/02 16:43:22;;;;;;;7.50;2.67;;;5.50;99.90;;;;;;4945230;28;20053;-49
2022/02/02 16:45:44;;;;;;;3.58;2.00;;;5.50;99.90;;;;;;4944516;28;21070;-50
2022/02/02 16:48:10;;;;;;;7.82;2.58;;;5.50;99.90;;;;;;4945464;28;20035;-49
2022/02/02 16:50:42;;;;;;;9.60;2.50;;;5.50;99.90;;;;;;4945805;28;20038;-49
2022/02/02 16:53:23;;;;;;;7.85;2.47;;;5.50;99.90;;;;;;4948829;28;20045;-48
2022/02/02 17:33:13;;;;;;;9.43;2.80;;;4.90;99.90;;;;;;4941091;28;20023;-49
2022/02/02 17:45:38;;;;;;;11.13;3.28;;;4.70;99.90;;;;;;4944531;28;20031;-49
2022/02/02 18:20:37;;;;;;;5.63;2.55;;;4.90;99.90;;;;;;4952317;28;20044;-49
2022/02/02 18:26:22;;;;;;;4.32;2.75;;;4.80;99.90;;;;;;4969547;28;20037;-49
2022/02/02 18:36:28;;;;;;;11.40;3.10;;;4.80;99.90;;;;;;4951671;28;20035;-49
2022/02/02 18:57:00;;;;;;;;;;;4.90;99.90;;;;;;4952760;28;20039;-48
2022/02/02 19:07:25;;;;;;;6.10;2.70;;;4.90;99.90;;;;;;4949317;28;20687;-49
2022/02/02 19:37:36;;;;;;;10.98;3.63;;;4.90;99.90;;;;;;4945865;28;20038;-49
2022/02/02 19:40:32;;;;;;;5.60;3.08;;;4.80;99.90;;;;;;4943009;28;20046;-49
2022/02/02 19:57:00;;;;;;;5.35;3.28;;;4.40;99.90;;;;;;4944562;28;20578;-49
2022/02/02 20:11:05;;;;;;;7.43;3.13;;;4.20;99.90;;;;;;4951308;28;20047;-47
2022/02/02 20:13:35;;;;;;;6.60;2.88;;;4.10;99.90;;;;;;4944610;28;20047;-48
2022/02/02 20:16:01;;;;;;;4.35;2.78;;;4.10;99.90;;;;;;4946792;28;20050;-48
2022/02/02 20:18:29;;;;;;;4.45;2.92;;;4.00;99.90;;;;;;4945450;28;20066;-48
2022/02/02 20:20:56;;;;;;;4.75;2.80;;;4.00;99.90;;;;;;4943945;28;20042;-48
2022/02/02 20:23:22;;;;;;;3.63;2.90;;;4.00;99.90;;;;;;4940669;28;20036;-48
2022/02/02 20:25:54;;;;;;;4.50;2.60;;;4.00;99.90;;;;;;4940901;28;20055;-48
2022/02/02 20:28:19;;;;;;;4.63;2.42;;;3.90;99.90;;;;;;4942015;28;20401;-48
2022/02/02 20:30:45;;;;;;;10.00;3.00;;;3.90;99.90;;;;;;4945821;28;20035;-48
2022/02/02 20:33:11;;;;;;;14.23;4.28;;;3.90;99.90;;;;;;4942360;28;20027;-48
2022/02/02 20:35:36;;;;;;;46.97;15.80;;;3.90;99.90;;;;;;4946672;28;20360;-48
2022/02/02 20:38:02;;;;;;;18.08;5.88;;;3.80;99.90;;;;;;4945386;28;20408;-48
2022/02/02 20:40:28;;;;;;;62.97;17.75;;;3.90;99.90;;;;;;4940255;28;20035;-48
2022/02/02 20:43:08;;;;;;;70.55;18.13;;;3.90;99.90;;;;;;4946263;28;20065;-51
2022/02/02 21:09:54;;;;;;;6.88;4.28;;;3.90;99.90;;;;;;4944490;28;20028;-48
2022/02/02 21:18:08;;;;;;;219.68;44.53;;;3.80;99.90;;;;;;4952816;28;20042;-49
2022/02/02 21:20:51;;;;;;;283.92;65.68;;;3.90;99.90;;;;;;4942791;28;20039;-48
2022/02/02 21:28:36;;;;;;;62.42;29.13;;;3.80;99.90;;;;;;4944176;28;20046;-49
2022/02/02 21:31:03;;;;;;;15.33;8.07;;;3.80;99.90;;;;;;4937238;28;20047;-48
2022/02/02 21:33:28;;;;;;;13.13;5.35;;;3.80;99.90;;;;;;4944054;28;20286;-48
2022/02/02 21:35:58;;;;;;;7.68;5.00;;;3.80;99.90;;;;;;4943795;28;20470;-48
2022/02/02 21:40:57;;;;;;;7.25;4.38;;;3.70;99.90;;;;;;4943442;28;20019;-50
2022/02/02 21:43:24;;;;;;;8.90;4.65;;;3.70;99.90;;;;;;4947416;28;20043;-48
2022/02/02 21:45:50;;;;;;;7.97;4.22;;;3.70;99.90;;;;;;4946042;28;20030;-48
2022/02/02 21:48:16;;;;;;;9.07;4.68;;;3.70;99.90;;;;;;4944249;28;20512;-49
2022/02/02 21:50:54;;;;;;;9.48;5.82;;;3.80;99.90;;;;;;4947620;28;20120;-48
2022/02/02 21:53:20;;;;;;;10.95;6.50;;;3.80;99.90;;;;;;4945713;28;20081;-48
2022/02/02 21:55:46;;;;;;;9.55;4.85;;;3.80;99.90;;;;;;4950322;28;20031;-47
2022/02/02 21:58:12;;;;;;;11.48;5.47;;;3.90;99.90;;;;;;4948267;28;20045;-48
2022/02/02 22:00:39;;;;;;;9.07;4.80;;;3.90;99.90;;;;;;4947244;28;20027;-48
2022/02/02 22:03:07;;;;;;;10.20;4.50;;;3.90;99.90;;;;;;4950747;28;20437;-48
2022/02/02 22:05:36;;;;;;;5.05;4.10;;;3.90;99.90;;;;;;4951514;28;20031;-48
2022/02/02 22:08:07;;;;;;;7.03;4.03;;;3.90;99.90;;;;;;4953471;28;20070;-50
2022/02/02 22:10:33;;;;;;;6.68;3.80;;;3.90;99.90;;;;;;4953788;28;20038;-48
2022/02/02 22:12:59;;;;;;;9.27;4.13;;;3.90;99.90;;;;;;4956144;28;20170;-48
2022/02/02 22:15:29;;;;;;;6.65;4.70;;;3.90;99.90;;;;;;4952553;28;20512;-48
2022/02/02 22:17:55;;;;;;;6.10;4.10;;;4.00;99.90;;;;;;4950468;28;20042;-55
2022/02/02 22:20:21;;;;;;;5.78;3.95;;;4.00;99.90;;;;;;4950051;28;20031;-51
2022/02/02 22:22:47;;;;;;;6.65;4.10;;;3.90;99.90;;;;;;4965774;28;20085;-48
2022/02/02 22:25:14;;;;;;;9.43;4.80;;;3.90;99.90;;;;;;4948572;28;20193;-48
2022/02/02 22:27:40;;;;;;;7.35;4.43;;;4.00;99.90;;;;;;4953312;28;20035;-49
2022/02/02 22:30:08;;;;;;;11.13;5.00;;;4.00;99.90;;;;;;4955006;28;20444;-48
2022/02/02 22:32:33;;;;;;;8.98;4.30;;;3.90;99.90;;;;;;4951611;28;20039;-49
2022/02/02 22:34:59;;;;;;;7.68;5.10;;;4.00;99.90;;;;;;4957436;28;20035;-49
2022/02/02 22:37:26;;;;;;;8.43;4.45;;;3.90;99.90;;;;;;4952024;28;20249;-48
2022/02/02 22:39:53;;;;;;;6.00;3.97;;;3.90;99.90;;;;;;4950796;28;20086;-48
2022/02/02 22:42:21;;;;;;;6.63;3.47;;;3.90;99.90;;;;;;4953978;28;20392;-48
2022/02/02 22:44:48;;;;;;;;;;;3.90;99.90;;;;;;4953182;28;20034;-48
2022/02/02 22:47:15;;;;;;;4.85;3.33;;;3.90;99.90;;;;;;4951201;28;19914;-48
2022/02/02 22:49:44;;;;;;;5.82;3.55;;;3.90;99.90;;;;;;4950436;28;20079;-48
2022/02/02 22:52:11;;;;;;;6.25;3.95;;;3.90;99.90;;;;;;4952381;28;20082;-48
2022/02/02 22:54:39;;;;;;;5.03;3.40;;;3.90;99.90;;;;;;4954910;28;20392;-48
2022/02/02 22:57:05;;;;;;;6.13;3.05;;;3.90;99.90;;;;;;4954388;28;20038;-49
2022/02/02 22:59:31;;;;;;;6.68;3.22;;;3.90;99.90;;;;;;4954478;28;20035;-48
2022/02/02 23:02:04;;;;;;;4.38;3.10;;;3.90;99.90;;;;;;4962494;28;20034;-48
2022/02/02 23:04:29;;;;;;;7.47;3.90;;;4.00;99.90;;;;;;4948798;28;20027;-48
2022/02/02 23:07:01;;;;;;;5.22;3.58;;;4.00;99.90;;;;;;4950645;28;20428;-48
2022/02/02 23:09:27;;;;;;;5.30;3.40;;;4.00;99.90;;;;;;4952351;28;20035;-48
2022/02/02 23:11:53;;;;;;;4.07;3.03;;;3.90;99.90;;;;;;4953382;28;20027;-48
2022/02/02 23:14:27;;;;;;;4.50;3.08;;;3.90;99.90;;;;;;4951151;28;20086;-48
2022/02/02 23:16:55;;;;;;;6.47;3.60;;;3.90;99.90;;;;;;4950895;28;20078;-48
2022/02/02 23:19:21;;;;;;;4.97;3.78;;;3.80;99.90;;;;;;4949970;28;20031;-48
2022/02/02 23:21:48;;;;;;;5.00;3.40;;;3.80;99.90;;;;;;4950926;28;20086;-47
2022/02/02 23:24:16;;;;;;;4.82;3.60;;;3.80;99.90;;;;;;4952144;28;20038;-48
2022/02/02 23:26:45;;;;;;;6.03;3.50;;;3.80;99.90;;;;;;4949034;28;20042;-48
2022/02/02 23:29:13;;;;;;;5.43;3.13;;;3.80;99.90;;;;;;4951193;28;20043;-48
2022/02/02 23:31:42;;;;;;;5.85;4.10;;;3.70;99.90;;;;;;4949795;28;20043;-48
2022/02/02 23:34:07;;;;;;;5.93;3.25;;;3.70;99.90;;;;;;4951425;28;20038;-49
2022/02/02 23:36:33;;;;;;;4.53;3.53;;;3.60;99.90;;;;;;4951284;28;20760;-48
2022/02/02 23:39:00;;;;;;;4.70;3.28;;;3.60;99.90;;;;;;4950780;28;20035;-48
2022/02/02 23:44:10;;;;;;;4.35;3.33;;;3.40;99.90;;;;;;4947923;28;20145;-49
2022/02/02 23:46:43;;;;;;;5.43;3.28;;;3.40;99.90;;;;;;4951238;28;20054;-48
2022/02/02 23:49:18;;;;;;;6.25;3.20;;;3.30;99.90;;;;;;4948373;28;20051;-49
2022/02/02 23:51:47;;;;;;;4.47;3.45;;;3.30;99.90;;;;;;4951028;28;20400;-49
2022/02/02 23:54:12;;;;;;;6.65;4.20;;;3.40;99.90;;;;;;4951431;28;20170;-49
